createdAt,value
2018-05-25T00:02:04.404Z,16.4
2018-05-25T00:07:04.042Z,16.5
2018-05-25T00:12:04.096Z,16.3
2018-05-25T00:17:04.691Z,16.3
2018-05-25T00:22:04.754Z,16.2
2018-05-25T00:27:04.157Z,16.2
2018-05-25T00:32:04.852Z,16.1
2018-05-25T00:37:04.522Z,16.0
2018-05-25T00:42:04.230Z,15.9
2018-05-25T00:47:04.682Z,15.9
2018-05-25T00:52:04.790Z,15.9
2018-05-25T00:57:04.126Z,15.7
2018-05-25T01:02:04.736Z,15.6
2018-05-25T01:07:04.777Z,15.5
2018-05-25T01:12:04.474Z,15.6
2018-05-25T01:17:04.135Z,15.6
2018-05-25T01:22:04.610Z,15.5
2018-05-25T01:27:04.092Z,15.4
2018-05-25T01:32:04.746Z,15.3
2018-05-25T01:37:04.656Z,15.3
2018-05-25T01:42:04.251Z,15.3
2018-05-25T01:47:04.888Z,15.2
2018-05-25T01:52:04.713Z,15.2
2018-05-25T01:57:04.297Z,15.2
2018-05-25T02:02:04.319Z,15.0
2018-05-25T02:07:04.663Z,15.0
2018-05-25T02:12:04.207Z,14.9
2018-05-25T02:17:05.032Z,14.7
2018-05-25T02:22:04.684Z,14.5
2018-05-25T02:27:04.593Z,14.5
2018-05-25T02:32:04.350Z,14.4
2018-05-25T02:37:04.263Z,14.2
2018-05-25T02:42:04.337Z,14.2
2018-05-25T02:47:04.920Z,14.3
2018-05-25T02:52:04.830Z,14.3
2018-05-25T02:57:04.683Z,14.4
2018-05-25T03:02:11.676Z,14.5
2018-05-25T03:07:04.353Z,14.4
2018-05-25T03:12:04.833Z,14.5
2018-05-25T03:17:19.677Z,14.6
2018-05-25T03:22:04.117Z,14.6
2018-05-25T03:27:04.126Z,14.7
2018-05-25T03:32:09.999Z,14.6
2018-05-25T03:37:04.712Z,14.8
2018-05-25T03:42:03.976Z,14.8
2018-05-25T03:47:11.354Z,14.8
2018-05-25T03:52:04.126Z,14.6
2018-05-25T03:57:04.188Z,14.4
2018-05-25T04:02:13.405Z,14.3
2018-05-25T04:07:04.772Z,14.3
2018-05-25T04:12:04.228Z,14.4
2018-05-25T04:17:13.711Z,14.5
2018-05-25T04:22:04.466Z,14.6
2018-05-25T04:27:04.659Z,14.6
2018-05-25T04:32:17.512Z,14.7
2018-05-25T04:37:04.277Z,14.7
2018-05-25T04:42:04.188Z,14.8
2018-05-25T04:47:09.782Z,15.0
2018-05-25T04:52:04.493Z,15.0
2018-05-25T04:57:04.468Z,15.3
2018-05-25T05:02:14.624Z,15.4
2018-05-25T05:07:04.338Z,15.5
2018-05-25T05:12:04.352Z,15.5
2018-05-25T05:17:14.888Z,16.1
2018-05-25T05:22:04.246Z,16.1
2018-05-25T05:27:04.280Z,16.3
2018-05-25T05:32:13.828Z,16.4
2018-05-25T05:37:04.522Z,16.4
2018-05-25T05:42:04.585Z,16.6
2018-05-25T05:47:14.464Z,17.2
2018-05-25T05:52:04.071Z,17.2
2018-05-25T05:57:04.078Z,17.5
2018-05-25T06:02:13.618Z,18.3
2018-05-25T06:07:04.617Z,18.8
2018-05-25T06:12:04.096Z,18.7
2018-05-25T06:17:14.318Z,19.1
2018-05-25T06:22:04.429Z,19.3
2018-05-25T06:27:04.585Z,19.4
2018-05-25T06:32:14.426Z,19.7
2018-05-25T06:37:04.078Z,20.0
2018-05-25T06:42:04.284Z,19.9
2018-05-25T06:47:12.167Z,20.2
2018-05-25T06:52:04.543Z,20.9
2018-05-25T06:57:04.644Z,21.2
2018-05-25T07:02:16.307Z,21.4
2018-05-25T07:07:04.513Z,21.4
2018-05-25T07:12:04.733Z,22.2
2018-05-25T07:17:14.547Z,22.5
2018-05-25T07:22:04.251Z,22.5
2018-05-25T07:27:04.372Z,22.9
2018-05-25T07:32:17.020Z,23.3
2018-05-25T07:37:04.827Z,23.6
2018-05-25T07:42:04.087Z,23.9
2018-05-25T07:47:12.163Z,24.2
2018-05-25T07:52:04.583Z,24.4
2018-05-25T07:57:04.697Z,24.7
2018-05-25T08:02:14.247Z,25.5
2018-05-25T08:07:04.227Z,25.8
2018-05-25T08:12:04.536Z,25.7
2018-05-25T08:17:12.770Z,26.4
2018-05-25T08:22:04.419Z,26.3
2018-05-25T08:27:04.350Z,26.8
2018-05-25T08:32:14.222Z,27.0
2018-05-25T08:37:04.675Z,27.2
2018-05-25T08:42:04.047Z,27.5
2018-05-25T08:47:13.534Z,28.5
2018-05-25T08:52:04.274Z,28.6
2018-05-25T08:57:04.448Z,29.0
2018-05-25T09:02:13.962Z,29.4
2018-05-25T09:07:04.283Z,29.9
2018-05-25T09:12:04.393Z,30.2
2018-05-25T09:17:14.521Z,29.7
2018-05-25T09:22:04.004Z,29.6
2018-05-25T09:27:04.293Z,29.9
2018-05-25T09:32:13.767Z,29.9
2018-05-25T09:37:04.474Z,29.6
2018-05-25T09:42:04.522Z,29.5
2018-05-25T09:47:14.813Z,29.7
2018-05-25T09:52:04.194Z,30.2
2018-05-25T09:57:04.257Z,30.9
2018-05-25T10:02:14.346Z,32.2
2018-05-25T10:07:04.286Z,32.4
2018-05-25T10:12:04.299Z,32.4
2018-05-25T10:17:13.903Z,32.4
2018-05-25T10:22:04.006Z,32.4
2018-05-25T10:27:04.606Z,32.4
2018-05-25T10:32:15.762Z,32.0
2018-05-25T10:37:05.004Z,31.5
2018-05-25T10:42:04.014Z,31.2
2018-05-25T10:47:13.975Z,31.1
2018-05-25T10:52:04.304Z,30.9
2018-05-25T10:57:04.687Z,30.9
2018-05-25T11:02:19.573Z,31.0
2018-05-25T11:07:04.124Z,30.5
2018-05-25T11:12:04.801Z,30.5
2018-05-25T11:17:13.945Z,30.1
2018-05-25T11:22:04.044Z,29.2
2018-05-25T11:27:04.364Z,27.6
2018-05-25T11:32:14.127Z,27.6
2018-05-25T11:37:04.634Z,27.2
2018-05-25T11:42:04.698Z,26.6
2018-05-25T11:47:17.523Z,25.9
2018-05-25T11:52:04.189Z,25.6
2018-05-25T11:57:04.297Z,25.6
2018-05-25T12:02:11.665Z,26.0
2018-05-25T12:07:04.110Z,26.4
2018-05-25T12:12:04.366Z,26.4
2018-05-25T12:17:17.781Z,27.4
2018-05-25T12:22:04.133Z,27.9
2018-05-25T12:27:04.291Z,27.7
2018-05-25T12:32:14.101Z,27.4
2018-05-25T12:37:04.793Z,27.8
2018-05-25T12:42:04.086Z,28.0
2018-05-25T12:47:12.671Z,28.1
2018-05-25T12:52:04.484Z,28.0
2018-05-25T12:57:04.602Z,27.8
2018-05-25T13:02:14.418Z,27.8
2018-05-25T13:07:04.241Z,27.8
2018-05-25T13:12:04.571Z,29.3
2018-05-25T13:17:12.817Z,29.3
2018-05-25T13:22:04.279Z,30.1
2018-05-25T13:27:04.181Z,30.2
2018-05-25T13:32:11.884Z,30.5
2018-05-25T13:37:04.674Z,31.1
2018-05-25T13:42:04.700Z,31.6
2018-05-25T13:47:17.674Z,32.4
2018-05-25T13:52:04.270Z,32.3
2018-05-25T13:57:04.462Z,32.9
2018-05-25T14:02:12.608Z,34.4
2018-05-25T14:07:04.468Z,34.4
2018-05-25T14:12:04.640Z,35.0
2018-05-25T14:17:14.189Z,34.3
2018-05-25T14:22:04.150Z,33.8
2018-05-25T14:27:04.215Z,33.9
2018-05-25T14:32:17.538Z,34.7
2018-05-25T14:37:04.717Z,37.6
2018-05-25T14:42:05.054Z,37.6
2018-05-25T14:47:13.198Z,36.5
2018-05-25T14:52:04.196Z,36.7
2018-05-25T14:57:04.453Z,36.1
2018-05-25T15:02:14.445Z,34.3
2018-05-25T15:07:04.032Z,34.3
2018-05-25T15:12:04.336Z,33.6
2018-05-25T15:17:14.322Z,33.1
2018-05-25T15:22:04.673Z,32.7
2018-05-25T15:27:04.802Z,32.4
2018-05-25T15:32:14.389Z,37.6
2018-05-25T15:37:04.166Z,43.9
2018-05-25T15:42:04.163Z,41.1
2018-05-25T15:47:14.487Z,41.0
2018-05-25T15:52:04.500Z,36.7
2018-05-25T15:57:04.497Z,34.9
2018-05-25T16:02:14.158Z,36.6
2018-05-25T16:07:04.293Z,44.6
2018-05-25T16:12:04.377Z,44.5
2018-05-25T16:17:13.917Z,48.9
2018-05-25T16:22:04.710Z,48.9
2018-05-25T16:27:04.632Z,49.0
2018-05-25T16:32:13.840Z,48.2
2018-05-25T16:37:04.058Z,50.0
2018-05-25T16:42:04.139Z,50.9
2018-05-25T16:47:11.792Z,51.9
2018-05-25T16:52:04.285Z,51.9
2018-05-25T16:57:04.339Z,51.8
2018-05-25T17:02:13.706Z,52.2
2018-05-25T17:07:04.703Z,52.4
2018-05-25T17:12:04.024Z,52.3
2018-05-25T17:17:05.120Z,52.0
2018-05-25T17:22:04.302Z,50.6
2018-05-25T17:27:04.385Z,50.6
2018-05-25T17:32:11.679Z,50.5
2018-05-25T17:37:04.641Z,50.4
2018-05-25T17:42:04.437Z,49.9
2018-05-25T17:47:10.489Z,48.0
2018-05-25T17:52:03.896Z,48.0
2018-05-25T17:57:04.140Z,46.0
2018-05-25T18:02:13.677Z,40.9
2018-05-25T18:07:04.600Z,40.9
2018-05-25T18:12:04.689Z,37.1
2018-05-25T18:17:13.414Z,34.7
2018-05-25T18:22:04.379Z,32.8
2018-05-25T18:27:04.489Z,31.5
2018-05-25T18:32:13.782Z,30.4
2018-05-25T18:37:04.765Z,29.6
2018-05-25T18:42:03.993Z,28.8
2018-05-25T18:47:13.552Z,28.2
2018-05-25T18:52:04.238Z,27.5
2018-05-25T18:57:04.362Z,26.3
2018-05-25T19:02:14.780Z,25.7
2018-05-25T19:07:04.666Z,25.7
2018-05-25T19:12:04.295Z,25.2
2018-05-25T19:17:15.250Z,24.8
2018-05-25T19:22:04.381Z,24.3
2018-05-25T19:27:04.045Z,24.0
2018-05-25T19:32:13.465Z,23.7
2018-05-25T19:37:04.541Z,23.6
2018-05-25T19:42:04.541Z,23.4
2018-05-25T19:47:12.236Z,23.2
2018-05-25T19:52:03.724Z,22.9
2018-05-25T19:57:03.883Z,22.8
2018-05-25T20:02:08.712Z,22.6
2018-05-25T20:07:04.482Z,22.4
2018-05-25T20:12:04.719Z,22.2
2018-05-25T20:17:12.042Z,22.0
2018-05-25T20:22:04.101Z,21.3
2018-05-25T20:27:04.365Z,21.2
2018-05-25T20:32:08.113Z,20.9
2018-05-25T20:37:04.469Z,20.6
2018-05-25T20:42:04.507Z,20.3
2018-05-25T20:47:05.216Z,20.2
2018-05-25T20:52:04.672Z,20.0
2018-05-25T20:57:04.726Z,20.0
2018-05-25T21:02:05.401Z,19.9
2018-05-25T21:07:04.079Z,19.9
2018-05-25T21:12:04.224Z,19.8
2018-05-25T21:17:04.415Z,19.8
2018-05-25T21:22:04.479Z,19.8
2018-05-25T21:27:04.723Z,19.7
2018-05-25T21:32:06.201Z,19.5
2018-05-25T21:37:04.950Z,19.3
2018-05-25T21:42:03.943Z,19.3
2018-05-25T21:47:05.194Z,19.3
2018-05-25T21:52:04.127Z,19.2
2018-05-25T21:57:04.137Z,19.1
2018-05-25T22:02:04.817Z,18.7
2018-05-25T22:07:03.964Z,18.6
2018-05-25T22:12:04.801Z,18.6
2018-05-25T22:22:16.865Z,18.2
2018-05-25T22:27:16.818Z,18.1
2018-05-25T22:32:16.871Z,17.9
2018-05-25T22:37:15.999Z,17.8
2018-05-25T22:42:16.411Z,17.8
2018-05-25T22:47:16.060Z,17.6
2018-05-25T22:52:16.815Z,17.4
2018-05-25T22:57:16.705Z,17.4
2018-05-25T23:02:16.741Z,17.4
2018-05-25T23:07:15.971Z,17.4
2018-05-25T23:12:04.510Z,17.4
2018-05-25T23:17:04.121Z,17.2
2018-05-25T23:22:03.987Z,17.2
2018-05-25T23:27:04.404Z,17.1
2018-05-25T23:32:04.046Z,17.1
2018-05-25T23:37:04.047Z,17.0
2018-05-25T23:42:04.409Z,17.0
2018-05-25T23:47:04.018Z,17.0
2018-05-25T23:52:04.406Z,16.8
2018-05-25T23:57:04.030Z,16.7
